Latest Coastal Weather Observations for Thursday Island

IDQ60701

Issued at 1:52 pm EST Tuesday 26 May 2020 (issued every 10 minutes, with the page automatically refreshed every 10 minutes)

About coastal observations | Map of coastal stations | Coastal observations for QLD | Marine services | Other Formats
Station Details ID: 200892 Name: TORRES STRAIT NTC AWS Lat: -10.59 Lon: 142.22 Height: 3.0 m
Data from the previous 72 hours. | See also: Recent months for locations in Queensland
Date/Time
EST
Wind Sea
Height
m
Swell Vis
km
Cloud Weather Temp
°C
Press
hPa
Rain since
9am
mm
Dir  Spd
kts
Gust
kts
Height
m
Period
s
Dir
26/01:30pm ESE 11 15 - - - - - - - 27.6 1013.0 -
26/01:00pm ESE 14 17 - - - - - - - 27.5 1013.2 -
26/12:30pm ESE 12 18 - - - - - - - 27.5 1013.6 -
26/12:00pm ESE 11 15 - - - - - - - 27.3 1014.1 -
26/11:30am SE 11 15 - - - - - - - 27.4 1014.4 -
26/11:00am ESE 11 15 - - - - - - - 27.1 1014.7 -
26/10:30am SE 12 15 - - - - - - - 26.8 1014.9 -
26/10:00am ESE 13 17 - - - - - - - 26.5 1015.1 -
26/09:30am SE 11 15 - - - - - - - 26.3 1015.3 -
26/09:00am SE 11 14 - - - - - - - 26.0 1015.2 -
26/08:30am SE 8 10 - - - - - - - 25.7 1015.2 -
26/08:00am SE 10 12 - - - - - - - 25.5 1014.8 -
26/07:30am SE 9 11 - - - - - - - 25.5 1014.6 -
26/07:00am SE 9 11 - - - - - - - 25.4 1014.4 -
26/06:30am SSE 10 13 - - - - - - - 25.5 1014.2 -
26/06:00am SE 9 12 - - - - - - - 25.6 1014.0 -
26/05:30am SE 8 10 - - - - - - - 25.6 1013.7 -
26/05:00am SE 9 12 - - - - - - - 25.6 1013.7 -
26/04:30am SE 9 12 - - - - - - - 25.7 1013.4 -
26/04:00am SE 11 13 - - - - - - - 25.7 1013.2 -
26/03:30am SE 10 12 - - - - - - - 25.6 1013.3 -
26/03:00am SE 9 11 - - - - - - - 25.5 1013.2 -
26/02:30am SE 12 14 - - - - - - - 25.5 1013.4 -
26/02:00am SE 10 12 - - - - - - - 25.6 1013.4 -
26/01:30am SE 9 13 - - - - - - - 25.6 1013.7 -
26/01:00am SSE 10 12 - - - - - - - 25.5 1013.8 -
26/12:30am SSE 8 10 - - - - - - - 25.7 1014.1 -
26/12:00am SE 8 11 - - - - - - - 25.6 1014.3 -
 
Date/Time
EST
Wind Sea
Height
m
Swell Vis
km
Cloud Weather Temp
°C
Press
hPa
Rain since
9am
mm
Dir  Spd
kts
Gust
kts
Height
m
Period
s
Dir
25/11:30pm SE 11 14 - - - - - - - 25.6 1014.5 -
25/11:00pm SE 11 13 - - - - - - - 25.5 1014.7 -
25/10:30pm SE 9 11 - - - - - - - 25.4 1014.9 -
25/10:00pm SSE 10 13 - - - - - - - 25.5 1014.8 -
25/09:30pm SE 8 11 - - - - - - - 25.6 1014.8 -
25/09:00pm SE 8 11 - - - - - - - 25.6 1014.7 -
25/08:30pm SSE 11 14 - - - - - - - 25.7 1014.5 -
25/08:00pm SE 8 11 - - - - - - - 25.8 1014.3 -
25/07:30pm SE 9 12 - - - - - - - 25.9 1013.9 -
25/07:00pm ESE 8 11 - - - - - - - 26.0 1013.5 -
25/06:30pm ESE 9 12 - - - - - - - 26.0 1013.4 -
25/06:00pm E 12 15 - - - - - - - 25.9 1013.0 -
25/05:30pm E 11 13 - - - - - - - 26.2 1012.7 -
25/05:00pm E 9 13 - - - - - - - 26.4 1012.3 -
25/04:30pm E 7 9 - - - - - - - 26.5 1012.2 -
25/04:00pm E 9 11 - - - - - - - 26.6 1012.1 -
25/03:30pm ESE 7 10 - - - - - - - 26.7 1012.0 -
25/03:00pm ESE 5 7 - - - - - - - 26.7 1012.3 -
25/02:30pm E 6 12 - - - - - - - 26.3 1012.7 -
25/02:00pm SSE 5 12 - - - - - - - 26.5 1013.0 -
25/01:30pm S 8 10 - - - - - - - 25.9 1013.2 -
25/01:00pm S 9 11 - - - - - - - 25.7 1013.7 -
25/12:30pm S 9 11 - - - - - - - 25.6 1014.1 -
25/12:00pm SSE 8 10 - - - - - - - 25.2 1014.7 -
25/11:30am SSE 10 13 - - - - - - - 24.8 1015.1 -
25/11:00am SSE 11 14 - - - - - - - 24.6 1015.2 -
25/10:30am S 9 13 - - - - - - - 24.9 1015.6 -
25/10:00am S 11 13 - - - - - - - 24.4 1015.9 -
25/09:30am S 11 14 - - - - - - - 24.4 1016.0 -
25/09:00am S 13 16 - - - - - - - 23.9 1015.9 -
25/08:30am S 13 16 - - - - - - - 23.8 1015.5 -
25/08:00am S 11 15 - - - - - - - 23.6 1015.4 -
25/07:30am S 13 17 - - - - - - - 23.2 1015.3 -
25/07:00am S 10 13 - - - - - - - 23.2 1015.1 -
25/06:30am S 11 15 - - - - - - - 23.4 1014.8 -
25/06:00am S 12 16 - - - - - - - 23.4 1014.4 -
25/05:30am S 13 16 - - - - - - - 23.7 1014.0 -
25/05:00am S 11 13 - - - - - - - 24.1 1013.7 -
25/04:30am S 11 13 - - - - - - - 24.0 1013.2 -
25/04:00am S 11 13 - - - - - - - 23.9 1012.9 -
25/03:30am S 9 11 - - - - - - - 24.0 1012.9 -
25/03:00am S 9 11 - - - - - - - 24.1 1013.0 -
25/02:30am S 8 10 - - - - - - - 24.4 1013.1 -
25/02:00am SE 6 8 - - - - - - - 24.4 1013.1 -
25/01:30am SE 6 7 - - - - - - - 24.5 1013.2 -
25/01:00am SE 6 9 - - - - - - - 24.4 1013.3 -
25/12:30am SSE 6 8 - - - - - - - 24.5 1013.6 -
25/12:00am SE 6 9 - - - - - - - 24.4 1013.8 -
 
Date/Time
EST
Wind Sea
Height
m
Swell Vis
km
Cloud Weather Temp
°C
Press
hPa
Rain since
9am
mm
Dir  Spd
kts
Gust
kts
Height
m
Period
s
Dir
24/11:30pm SE 7 9 - - - - - - - 24.6 1013.9 -
24/11:00pm SE 8 10 - - - - - - - 24.4 1014.2 -
24/10:30pm SSE 8 10 - - - - - - - 24.5 1014.3 -
24/10:00pm SE 9 10 - - - - - - - 24.7 1014.6 -
24/09:30pm SE 6 8 - - - - - - - 24.2 1014.4 -
24/09:00pm SE 8 10 - - - - - - - 23.3 1014.4 -
24/08:30pm SE 10 13 - - - - - - - 23.7 1014.1 -
24/08:00pm SSW 7 8 - - - - - - - 24.8 1013.8 -
24/07:30pm SSW 6 7 - - - - - - - 24.7 1013.4 -
24/07:00pm SW 5 9 - - - - - - - 25.0 1013.3 -
24/06:30pm WSW 6 9 - - - - - - - 25.1 1013.2 -
24/06:00pm W 8 10 - - - - - - - 25.2 1012.7 -
24/05:30pm W 9 12 - - - - - - - 25.5 1012.4 -
24/05:00pm W 7 11 - - - - - - - 25.8 1012.0 -
24/04:30pm ESE 6 11 - - - - - - - 26.3 1011.5 -
24/04:00pm ENE 9 12 - - - - - - - 26.0 1011.2 -
24/03:30pm ENE 9 11 - - - - - - - 26.1 1011.3 -
24/03:00pm NE 9 11 - - - - - - - 25.6 1011.3 -
24/02:30pm ENE 7 11 - - - - - - - 25.5 1011.5 -
24/02:00pm ESE 2 8 - - - - - - - 25.8 1011.9 -
24/01:30pm S 4 6 - - - - - - - 25.7 1012.3 -
24/01:00pm S 5 7 - - - - - - - 25.5 1012.7 -
24/12:30pm SSE 7 9 - - - - - - - 25.4 1013.3 -
24/12:00pm SSE 7 9 - - - - - - - 24.9 1013.9 -
24/11:30am SSE 7 10 - - - - - - - 24.6 1014.4 -
24/11:00am SSE 7 10 - - - - - - - 24.6 1014.7 -
24/10:30am S 7 9 - - - - - - - 24.7 1014.8 -
24/10:00am S 9 11 - - - - - - - 24.3 1014.7 -
24/09:30am S 8 10 - - - - - - - 24.0 1014.7 -
24/09:00am S 7 9 - - - - - - - 23.7 1014.6 -
24/08:30am S 8 11 - - - - - - - 23.3 1014.2 -
24/08:00am S 10 13 - - - - - - - 23.1 1013.7 -
24/07:30am S 10 13 - - - - - - - 22.9 1013.4 -
24/07:00am S 8 10 - - - - - - - 23.0 1013.0 -
24/06:30am S 9 12 - - - - - - - 22.7 1012.8 -
24/06:00am SSW 9 12 - - - - - - - 22.8 1012.5 -
24/05:30am S 9 14 - - - - - - - 23.2 1012.2 -
24/05:00am S 8 11 - - - - - - - 23.4 1012.1 -
24/04:30am S 8 10 - - - - - - - 23.7 1012.0 -
24/04:00am SSW 7 10 - - - - - - - 23.9 1012.1 -
24/03:30am SSW 5 8 - - - - - - - 24.3 1012.1 -
24/03:00am SSW 4 7 - - - - - - - 24.4 1012.3 -
24/02:30am S 5 8 - - - - - - - 24.4 1012.1 -
24/02:00am SSW 4 7 - - - - - - - 24.5 1012.2 -
24/01:30am SSW 6 8 - - - - - - - 24.4 1012.2 -
24/01:00am S 7 10 - - - - - - - 24.8 1012.5 -
24/12:30am SSE 7 10 - - - - - - - 24.8 1012.6 -
24/12:00am SSE 9 11 - - - - - - - 24.9 1012.9 -
 
Date/Time
EST
Wind Sea
Height
m
Swell Vis
km
Cloud Weather Temp
°C
Press
hPa
Rain since
9am
mm
Dir  Spd
kts
Gust
kts
Height
m
Period
s
Dir
23/11:30pm SSE 11 14 - - - - - - - 24.9 1013.0 -
23/11:00pm SSE 11 15 - - - - - - - 24.9 1013.1 -
23/10:30pm SSE 8 12 - - - - - - - 25.0 1013.0 -
23/10:00pm S 8 11 - - - - - - - 25.1 1012.7 -
23/09:30pm S 8 11 - - - - - - - 25.1 1012.8 -
23/09:00pm SSW 12 16 - - - - - - - 25.1 1012.6 -
23/08:30pm S 9 13 - - - - - - - 25.1 1012.4 -
23/08:00pm S 9 12 - - - - - - - 25.1 1012.1 -
23/07:30pm S 9 11 - - - - - - - 24.7 1011.8 -
23/07:00pm S 13 17 - - - - - - - 24.7 1011.4 -
23/06:30pm S 15 19 - - - - - - - 24.7 1011.2 -
23/06:00pm S 14 20 - - - - - - - 25.0 1010.8 -
23/05:30pm S 13 19 - - - - - - - 24.9 1010.4 -
23/05:00pm S 15 18 - - - - - - - 25.0 1010.0 -
23/04:30pm S 14 18 - - - - - - - 24.9 1009.8 -
23/04:00pm S 16 18 - - - - - - - 24.8 1009.6 -
23/03:30pm S 15 20 - - - - - - - 25.2 1009.8 -
23/03:00pm S 13 17 - - - - - - - 25.8 1009.8 -
23/02:30pm S 12 17 - - - - - - - 25.8 1010.0 -
23/02:00pm S 15 20 - - - - - - - 25.7 1010.3 -

Other formats

Comma delimited format used in spreadsheet applications
http://www.bom.gov.au/fwo/IDQ60701/IDQ60701.94181.axf

JavaScript Object Notation format (JSON) in row-major order
http://www.bom.gov.au/fwo/IDQ60701/IDQ60701.94181.json

Data quality

Most of these data are generated automatically and are frequently updated. Quality checks on data are not normally performed. It is possible for incorrect values to appear. Refer to information at About Latest Weather Observations and please check the disclaimer before using these data.